Hellier, Kentucky
Current Conditions -  °F | °C
As of 3:15 PM on Thursday 29 Jan 2015 (Local Time) from KPBX Reporting Station
Overcast Overcast  
Wind Chill: 12°   Ceiling: 4400
Heat Index: 12°   Visibility: 10mi
Dew Point:   Wind: 12mph
Humidity: 52%   Direction: 210°SSW
Pressure: 29.89"   Gusts: 18mph
Location:  37.29°N, 82.47°W
Report Text: KPBX 292015Z AUTO 21010G16KT 160V260 10SM OVC044 12/02 A2989 RMK AO2 T01170022
Loading
Personal Weather Stations






























Interactive Weather Map New forecast layout! Learn more

10-Day Weather Forecast

Advertisements
Track Severe Weather on mobile